KFUL/FUL METAR and TAF weather

Enter ICAO airport designator
Station Type Date Time Source
KFUL METAR 2021/06/24 04:53 UTC NOAA

KFUL 240453Z AUTO VRB04KT 10SM FEW110 19/13 A2999 RMK AO2 SLP154 T01890128


Station Type Date Time Source
KFUL Decoded METAR 2021/06/24 04:53 UTC NOAA

FULLERTON MUNICIPAL AIRPORT , CA, United States (KFUL) 33-52N 117-59W 35M
Jun 24, 2021 - 12:53 AM EDT / 2021.06.24 0453 UTC
Wind: Variable at 5 MPH (4 KT):0
Visibility: 10 mile(s):0
Sky conditions: mostly clear
Temperature: 66.0 F (18.9 C)
Dew Point: 55.0 F (12.8 C)
Relative Humidity: 67%
Pressure (altimeter): 29.99 in. Hg (1015 hPa)
ob: KFUL 240453Z AUTO VRB04KT 10SM FEW110 19/13 A2999 RMK AO2 SLP154 T01890128
cycle: 5

Station Type Date Time Source
KFUL TAF UTC NOAA

Error!

Example: see airport list